sensor_id;sensor_type;location;lat;lon;timestamp;P1;durP1;ratioP1;P2;durP2;ratioP2
48849;SDS011;63210;53.370;6.770;2023-11-21T01:13:14;23.52;;;6.38;;
48849;SDS011;63210;53.370;6.770;2023-11-21T01:15:41;20.83;;;5.90;;
48849;SDS011;63210;53.370;6.770;2023-11-21T01:18:06;30.20;;;8.57;;
48849;SDS011;63210;53.370;6.770;2023-11-21T01:20:33;29.13;;;6.85;;
48849;SDS011;63210;53.370;6.770;2023-11-21T01:23:01;24.38;;;6.25;;
48849;SDS011;63210;53.370;6.770;2023-11-21T01:25:26;20.83;;;5.80;;
48849;SDS011;63210;53.370;6.770;2023-11-21T01:27:52;23.98;;;6.38;;
48849;SDS011;63210;53.370;6.770;2023-11-21T01:30:17;26.75;;;6.10;;
48849;SDS011;63210;53.370;6.770;2023-11-21T01:32:43;34.10;;;7.20;;
48849;SDS011;63210;53.370;6.770;2023-11-21T01:35:08;28.70;;;6.85;;
48849;SDS011;63210;53.370;6.770;2023-11-21T01:37:35;27.48;;;6.78;;
48849;SDS011;63210;53.370;6.770;2023-11-21T01:40:01;23.27;;;7.07;;
48849;SDS011;63210;53.370;6.770;2023-11-21T01:42:27;26.55;;;7.55;;
48849;SDS011;63210;53.370;6.770;2023-11-21T01:44:55;19.30;;;6.40;;
48849;SDS011;63210;53.370;6.770;2023-11-21T01:47:20;37.80;;;8.18;;
48849;SDS011;63210;53.370;6.770;2023-11-21T01:49:46;33.47;;;6.97;;
48849;SDS011;63210;53.370;6.770;2023-11-21T01:52:12;34.50;;;6.68;;
48849;SDS011;63210;53.370;6.770;2023-11-21T01:54:38;30.65;;;6.78;;
48849;SDS011;63210;53.370;6.770;2023-11-21T01:57:04;23.38;;;6.78;;
48849;SDS011;63210;53.370;6.770;2023-11-21T01:59:37;30.13;;;7.05;;
48849;SDS011;63210;53.370;6.770;2023-11-21T02:02:06;22.77;;;6.38;;
48849;SDS011;63210;53.370;6.770;2023-11-21T02:04:32;25.77;;;6.90;;
48849;SDS011;63210;53.370;6.770;2023-11-21T02:06:58;30.65;;;7.57;;
48849;SDS011;63210;53.370;6.770;2023-11-21T02:09:27;28.17;;;8.07;;
48849;SDS011;63210;53.370;6.770;2023-11-21T02:11:53;31.20;;;8.40;;
48849;SDS011;63210;53.370;6.770;2023-11-21T02:14:19;28.00;;;7.70;;
48849;SDS011;63210;53.370;6.770;2023-11-21T02:16:50;23.35;;;7.80;;
48849;SDS011;63210;53.370;6.770;2023-11-21T02:19:18;26.67;;;8.40;;
48849;SDS011;63210;53.370;6.770;2023-11-21T02:21:45;29.83;;;8.45;;
48849;SDS011;63210;53.370;6.770;2023-11-21T02:24:13;41.17;;;8.63;;
48849;SDS011;63210;53.370;6.770;2023-11-21T02:26:38;33.33;;;8.98;;
48849;SDS011;63210;53.370;6.770;2023-11-21T02:29:06;30.38;;;8.15;;
48849;SDS011;63210;53.370;6.770;2023-11-21T02:31:35;28.80;;;7.32;;
48849;SDS011;63210;53.370;6.770;2023-11-21T02:34:02;37.08;;;7.88;;
48849;SDS011;63210;53.370;6.770;2023-11-21T02:36:30;29.83;;;7.22;;
48849;SDS011;63210;53.370;6.770;2023-11-21T02:38:56;27.17;;;7.38;;
48849;SDS011;63210;53.370;6.770;2023-11-21T02:41:21;26.83;;;8.57;;
48849;SDS011;63210;53.370;6.770;2023-11-21T02:43:46;28.67;;;7.88;;
48849;SDS011;63210;53.370;6.770;2023-11-21T02:46:12;24.27;;;6.82;;
48849;SDS011;63210;53.370;6.770;2023-11-21T02:48:39;26.52;;;8.25;;
48849;SDS011;63210;53.370;6.770;2023-11-21T02:51:10;19.75;;;6.15;;
48849;SDS011;63210;53.370;6.770;2023-11-21T02:54:09;39.85;;;7.88;;
48849;SDS011;63210;53.370;6.770;2023-11-21T02:56:53;29.38;;;6.85;;
48849;SDS011;63210;53.370;6.770;2023-11-21T02:59:25;23.00;;;6.90;;
48849;SDS011;63210;53.370;6.770;2023-11-21T03:01:58;21.75;;;6.93;;
48849;SDS011;63210;53.370;6.770;2023-11-21T03:04:27;20.63;;;6.63;;
48849;SDS011;63210;53.370;6.770;2023-11-21T03:06:54;27.10;;;7.43;;
48849;SDS011;63210;53.370;6.770;2023-11-21T03:09:33;35.03;;;7.80;;
48849;SDS011;63210;53.370;6.770;2023-11-21T03:11:58;29.58;;;7.32;;
48849;SDS011;63210;53.370;6.770;2023-11-21T03:14:30;29.55;;;7.07;;
48849;SDS011;63210;53.370;6.770;2023-11-21T03:16:55;27.15;;;7.25;;
48849;SDS011;63210;53.370;6.770;2023-11-21T03:19:24;25.33;;;6.35;;
48849;SDS011;63210;53.370;6.770;2023-11-21T03:21:56;25.60;;;7.50;;
48849;SDS011;63210;53.370;6.770;2023-11-21T03:24:27;33.28;;;7.80;;
48849;SDS011;63210;53.370;6.770;2023-11-21T03:27:06;32.97;;;7.20;;
48849;SDS011;63210;53.370;6.770;2023-11-21T03:30:07;23.42;;;6.68;;
48849;SDS011;63210;53.370;6.770;2023-11-21T03:32:33;26.30;;;7.35;;
48849;SDS011;63210;53.370;6.770;2023-11-21T03:34:59;29.17;;;6.97;;
48849;SDS011;63210;53.370;6.770;2023-11-21T03:37:25;25.63;;;7.30;;
48849;SDS011;63210;53.370;6.770;2023-11-21T03:39:52;30.63;;;6.90;;
48849;SDS011;63210;53.370;6.770;2023-11-21T03:42:18;39.08;;;7.75;;
48849;SDS011;63210;53.370;6.770;2023-11-21T03:44:45;36.83;;;7.68;;
48849;SDS011;63210;53.370;6.770;2023-11-21T03:47:13;45.42;;;8.93;;
48849;SDS011;63210;53.370;6.770;2023-11-21T03:49:39;44.15;;;9.75;;
48849;SDS011;63210;53.370;6.770;2023-11-21T03:52:05;45.92;;;9.30;;
48849;SDS011;63210;53.370;6.770;2023-11-21T03:54:32;50.58;;;9.00;;
48849;SDS011;63210;53.370;6.770;2023-11-21T03:56:58;47.85;;;9.45;;
48849;SDS011;63210;53.370;6.770;2023-11-21T03:59:24;35.45;;;8.60;;
48849;SDS011;63210;53.370;6.770;2023-11-21T04:01:50;41.80;;;8.77;;
48849;SDS011;63210;53.370;6.770;2023-11-21T04:04:21;46.95;;;9.23;;
48849;SDS011;63210;53.370;6.770;2023-11-21T04:07:08;39.03;;;8.45;;
48849;SDS011;63210;53.370;6.770;2023-11-21T04:09:39;34.65;;;8.13;;
48849;SDS011;63210;53.370;6.770;2023-11-21T04:12:04;36.40;;;7.40;;
48849;SDS011;63210;53.370;6.770;2023-11-21T04:14:47;49.95;;;9.82;;
48849;SDS011;63210;53.370;6.770;2023-11-21T04:17:36;41.75;;;9.38;;
48849;SDS011;63210;53.370;6.770;2023-11-21T04:20:04;38.40;;;7.82;;
48849;SDS011;63210;53.370;6.770;2023-11-21T04:22:44;43.13;;;10.20;;
48849;SDS011;63210;53.370;6.770;2023-11-21T04:26:05;33.63;;;9.07;;
48849;SDS011;63210;53.370;6.770;2023-11-21T04:28:36;36.08;;;9.68;;
48849;SDS011;63210;53.370;6.770;2023-11-21T04:31:42;40.13;;;10.07;;
48849;SDS011;63210;53.370;6.770;2023-11-21T04:34:28;31.20;;;9.60;;
48849;SDS011;63210;53.370;6.770;2023-11-21T04:37:32;30.20;;;8.25;;
48849;SDS011;63210;53.370;6.770;2023-11-21T04:39:58;32.38;;;8.55;;
48849;SDS011;63210;53.370;6.770;2023-11-21T04:42:24;35.10;;;9.27;;
48849;SDS011;63210;53.370;6.770;2023-11-21T04:44:50;37.50;;;9.68;;
48849;SDS011;63210;53.370;6.770;2023-11-21T04:50:43;25.77;;;9.02;;
48849;SDS011;63210;53.370;6.770;2023-11-21T04:53:13;27.50;;;9.77;;
48849;SDS011;63210;53.370;6.770;2023-11-21T04:55:44;24.98;;;9.95;;
48849;SDS011;63210;53.370;6.770;2023-11-21T04:58:35;26.13;;;10.27;;
48849;SDS011;63210;53.370;6.770;2023-11-21T05:01:04;35.28;;;12.65;;
48849;SDS011;63210;53.370;6.770;2023-11-21T05:03:29;31.15;;;12.60;;
48849;SDS011;63210;53.370;6.770;2023-11-21T05:06:04;30.25;;;13.05;;
48849;SDS011;63210;53.370;6.770;2023-11-21T05:08:37;29.58;;;12.55;;
48849;SDS011;63210;53.370;6.770;2023-11-21T05:11:03;34.00;;;14.65;;
48849;SDS011;63210;53.370;6.770;2023-11-21T05:13:34;35.30;;;14.43;;
48849;SDS011;63210;53.370;6.770;2023-11-21T05:16:03;35.78;;;15.10;;
48849;SDS011;63210;53.370;6.770;2023-11-21T05:18:43;42.65;;;16.42;;
48849;SDS011;63210;53.370;6.770;2023-11-21T05:21:11;37.67;;;14.52;;
48849;SDS011;63210;53.370;6.770;2023-11-21T05:23:57;25.55;;;12.02;;
48849;SDS011;63210;53.370;6.770;2023-11-21T05:26:44;38.00;;;15.20;;
48849;SDS011;63210;53.370;6.770;2023-11-21T05:29:16;36.33;;;14.98;;
48849;SDS011;63210;53.370;6.770;2023-11-21T05:32:02;28.13;;;13.15;;
48849;SDS011;63210;53.370;6.770;2023-11-21T05:34:39;29.98;;;13.30;;
48849;SDS011;63210;53.370;6.770;2023-11-21T05:37:04;31.42;;;12.88;;
48849;SDS011;63210;53.370;6.770;2023-11-21T05:39:31;28.50;;;13.68;;
48849;SDS011;63210;53.370;6.770;2023-11-21T05:41:57;28.05;;;13.10;;
48849;SDS011;63210;53.370;6.770;2023-11-21T05:44:24;32.40;;;14.27;;
48849;SDS011;63210;53.370;6.770;2023-11-21T05:46:50;26.38;;;13.13;;
48849;SDS011;63210;53.370;6.770;2023-11-21T05:49:23;32.58;;;14.57;;
48849;SDS011;63210;53.370;6.770;2023-11-21T05:51:57;31.10;;;13.77;;
48849;SDS011;63210;53.370;6.770;2023-11-21T05:54:48;33.50;;;15.82;;
48849;SDS011;63210;53.370;6.770;2023-11-21T05:57:27;32.05;;;16.23;;
48849;SDS011;63210;53.370;6.770;2023-11-21T06:00:17;34.80;;;15.93;;
48849;SDS011;63210;53.370;6.770;2023-11-21T06:02:49;29.05;;;13.85;;
48849;SDS011;63210;53.370;6.770;2023-11-21T06:05:32;28.92;;;14.77;;
48849;SDS011;63210;53.370;6.770;2023-11-21T06:08:14;26.77;;;13.15;;
48849;SDS011;63210;53.370;6.770;2023-11-21T10:04:46;14.60;;;4.72;;
48849;SDS011;63210;53.370;6.770;2023-11-21T10:07:12;10.13;;;6.68;;
48849;SDS011;63210;53.370;6.770;2023-11-21T10:09:42;10.27;;;6.43;;
48849;SDS011;63210;53.370;6.770;2023-11-21T10:12:08;11.52;;;6.65;;
48849;SDS011;63210;53.370;6.770;2023-11-21T10:14:37;13.85;;;8.52;;
48849;SDS011;63210;53.370;6.770;2023-11-21T10:17:12;9.23;;;5.85;;
48849;SDS011;63210;53.370;6.770;2023-11-21T10:19:50;11.45;;;3.97;;
48849;SDS011;63210;53.370;6.770;2023-11-21T10:22:15;8.18;;;4.20;;
48849;SDS011;63210;53.370;6.770;2023-11-21T10:24:51;9.77;;;6.68;;
48849;SDS011;63210;53.370;6.770;2023-11-21T10:27:20;7.88;;;5.07;;
48849;SDS011;63210;53.370;6.770;2023-11-21T10:29:47;7.97;;;5.13;;
48849;SDS011;63210;53.370;6.770;2023-11-21T10:32:23;8.80;;;5.85;;
48849;SDS011;63210;53.370;6.770;2023-11-21T10:34:55;10.65;;;7.32;;
48849;SDS011;63210;53.370;6.770;2023-11-21T10:37:24;10.13;;;6.20;;
48849;SDS011;63210;53.370;6.770;2023-11-21T10:39:58;8.25;;;5.47;;
48849;SDS011;63210;53.370;6.770;2023-11-21T10:42:27;7.88;;;4.70;;
48849;SDS011;63210;53.370;6.770;2023-11-21T10:44:58;9.55;;;6.00;;
48849;SDS011;63210;53.370;6.770;2023-11-21T10:47:26;8.05;;;5.30;;
48849;SDS011;63210;53.370;6.770;2023-11-21T10:49:55;8.75;;;4.90;;
48849;SDS011;63210;53.370;6.770;2023-11-21T10:52:21;5.43;;;3.40;;
48849;SDS011;63210;53.370;6.770;2023-11-21T10:54:47;7.47;;;4.65;;
48849;SDS011;63210;53.370;6.770;2023-11-21T10:57:17;6.07;;;4.28;;
48849;SDS011;63210;53.370;6.770;2023-11-21T10:59:43;8.80;;;5.80;;
48849;SDS011;63210;53.370;6.770;2023-11-21T11:02:24;8.95;;;5.45;;
48849;SDS011;63210;53.370;6.770;2023-11-21T11:04:59;10.10;;;6.63;;
48849;SDS011;63210;53.370;6.770;2023-11-21T11:07:28;9.18;;;6.20;;
48849;SDS011;63210;53.370;6.770;2023-11-21T11:09:57;9.15;;;4.72;;
48849;SDS011;63210;53.370;6.770;2023-11-21T11:12:27;13.35;;;7.15;;
48849;SDS011;63210;53.370;6.770;2023-11-21T11:14:56;9.07;;;6.15;;
48849;SDS011;63210;53.370;6.770;2023-11-21T11:17:22;10.25;;;6.85;;
48849;SDS011;63210;53.370;6.770;2023-11-21T11:19:48;9.65;;;6.57;;
48849;SDS011;63210;53.370;6.770;2023-11-21T11:22:23;8.60;;;6.10;;
48849;SDS011;63210;53.370;6.770;2023-11-21T11:38:21;10.65;;;7.13;;
48849;SDS011;63210;53.370;6.770;2023-11-21T11:40:46;13.55;;;5.68;;
48849;SDS011;63210;53.370;6.770;2023-11-21T11:43:24;13.68;;;7.95;;
48849;SDS011;63210;53.370;6.770;2023-11-21T11:45:51;10.45;;;7.70;;
48849;SDS011;63210;53.370;6.770;2023-11-21T11:48:18;10.70;;;7.03;;
48849;SDS011;63210;53.370;6.770;2023-11-21T11:53:33;10.05;;;7.65;;
48849;SDS011;63210;53.370;6.770;2023-11-21T11:58:48;12.65;;;6.90;;
48849;SDS011;63210;53.370;6.770;2023-11-21T12:01:16;14.38;;;7.70;;
48849;SDS011;63210;53.370;6.770;2023-11-21T12:06:34;11.07;;;8.07;;
48849;SDS011;63210;53.370;6.770;2023-11-21T12:09:03;11.70;;;7.10;;
48849;SDS011;63210;53.370;6.770;2023-11-21T12:11:32;11.18;;;7.47;;
48849;SDS011;63210;53.370;6.770;2023-11-21T12:14:00;10.07;;;6.85;;
48849;SDS011;63210;53.370;6.770;2023-11-21T12:16:26;9.52;;;6.20;;
48849;SDS011;63210;53.370;6.770;2023-11-21T12:18:54;10.80;;;6.93;;
48849;SDS011;63210;53.370;6.770;2023-11-21T12:21:22;10.18;;;6.97;;
48849;SDS011;63210;53.370;6.770;2023-11-21T12:23:53;12.55;;;6.60;;
48849;SDS011;63210;53.370;6.770;2023-11-21T12:26:18;7.68;;;4.57;;
48849;SDS011;63210;53.370;6.770;2023-11-21T12:28:43;9.50;;;5.43;;
48849;SDS011;63210;53.370;6.770;2023-11-21T12:31:09;10.98;;;5.63;;
48849;SDS011;63210;53.370;6.770;2023-11-21T12:33:36;7.15;;;5.28;;
48849;SDS011;63210;53.370;6.770;2023-11-21T12:36:07;9.02;;;5.05;;
48849;SDS011;63210;53.370;6.770;2023-11-21T12:38:35;9.77;;;5.70;;
48849;SDS011;63210;53.370;6.770;2023-11-21T12:41:01;8.25;;;4.85;;
48849;SDS011;63210;53.370;6.770;2023-11-21T12:43:26;9.05;;;6.18;;
48849;SDS011;63210;53.370;6.770;2023-11-21T12:46:04;11.15;;;7.40;;
48849;SDS011;63210;53.370;6.770;2023-11-21T12:48:29;9.25;;;7.03;;
48849;SDS011;63210;53.370;6.770;2023-11-21T12:50:56;16.40;;;10.60;;
48849;SDS011;63210;53.370;6.770;2023-11-21T12:53:25;17.42;;;10.07;;
48849;SDS011;63210;53.370;6.770;2023-11-21T12:55:51;7.38;;;6.55;;
48849;SDS011;63210;53.370;6.770;2023-11-21T12:58:16;9.05;;;4.55;;
48849;SDS011;63210;53.370;6.770;2023-11-21T13:00:45;7.70;;;4.22;;
48849;SDS011;63210;53.370;6.770;2023-11-21T13:03:12;8.80;;;4.50;;
48849;SDS011;63210;53.370;6.770;2023-11-21T13:05:40;7.28;;;4.53;;
48849;SDS011;63210;53.370;6.770;2023-11-21T13:08:26;6.68;;;4.38;;
48849;SDS011;63210;53.370;6.770;2023-11-21T13:10:53;7.03;;;4.60;;
48849;SDS011;63210;53.370;6.770;2023-11-21T13:13:20;6.22;;;3.92;;
48849;SDS011;63210;53.370;6.770;2023-11-21T13:15:49;8.00;;;4.45;;
48849;SDS011;63210;53.370;6.770;2023-11-21T13:18:14;8.27;;;3.92;;
48849;SDS011;63210;53.370;6.770;2023-11-21T13:20:41;5.72;;;4.22;;
48849;SDS011;63210;53.370;6.770;2023-11-21T13:23:08;7.95;;;3.97;;
48849;SDS011;63210;53.370;6.770;2023-11-21T13:25:33;5.47;;;3.25;;
48849;SDS011;63210;53.370;6.770;2023-11-21T13:28:02;4.32;;;2.78;;
48849;SDS011;63210;53.370;6.770;2023-11-21T13:30:27;7.05;;;3.90;;
48849;SDS011;63210;53.370;6.770;2023-11-21T13:32:58;5.38;;;3.47;;
48849;SDS011;63210;53.370;6.770;2023-11-21T13:35:27;6.30;;;3.08;;
48849;SDS011;63210;53.370;6.770;2023-11-21T13:38:06;5.20;;;3.30;;
48849;SDS011;63210;53.370;6.770;2023-11-21T13:40:32;4.95;;;2.70;;
48849;SDS011;63210;53.370;6.770;2023-11-21T13:43:13;7.82;;;3.28;;
48849;SDS011;63210;53.370;6.770;2023-11-21T13:45:39;4.35;;;2.67;;
48849;SDS011;63210;53.370;6.770;2023-11-21T13:48:05;3.85;;;2.67;;
48849;SDS011;63210;53.370;6.770;2023-11-21T13:50:38;5.80;;;3.78;;
48849;SDS011;63210;53.370;6.770;2023-11-21T13:53:04;6.45;;;3.40;;
48849;SDS011;63210;53.370;6.770;2023-11-21T13:55:41;6.30;;;3.35;;
48849;SDS011;63210;53.370;6.770;2023-11-21T13:58:12;9.55;;;4.10;;
48849;SDS011;63210;53.370;6.770;2023-11-21T14:00:43;8.48;;;3.90;;
48849;SDS011;63210;53.370;6.770;2023-11-21T14:03:12;6.68;;;4.00;;
48849;SDS011;63210;53.370;6.770;2023-11-21T14:05:46;5.93;;;3.80;;
48849;SDS011;63210;53.370;6.770;2023-11-21T14:08:19;8.27;;;3.47;;
48849;SDS011;63210;53.370;6.770;2023-11-21T14:10:46;5.25;;;3.80;;
48849;SDS011;63210;53.370;6.770;2023-11-21T14:13:16;5.40;;;3.45;;
48849;SDS011;63210;53.370;6.770;2023-11-21T14:15:41;5.50;;;4.28;;
48849;SDS011;63210;53.370;6.770;2023-11-21T14:18:10;6.18;;;3.92;;
48849;SDS011;63210;53.370;6.770;2023-11-21T14:20:39;6.78;;;3.50;;
48849;SDS011;63210;53.370;6.770;2023-11-21T14:23:05;4.25;;;3.20;;
48849;SDS011;63210;53.370;6.770;2023-11-21T14:25:35;6.10;;;4.57;;
48849;SDS011;63210;53.370;6.770;2023-11-21T14:28:05;8.80;;;4.00;;
48849;SDS011;63210;53.370;6.770;2023-11-21T14:31:00;25.65;;;11.55;;
48849;SDS011;63210;53.370;6.770;2023-11-21T14:33:25;67.95;;;22.38;;
48849;SDS011;63210;53.370;6.770;2023-11-21T14:35:54;45.03;;;20.30;;
48849;SDS011;63210;53.370;6.770;2023-11-21T14:38:20;20.05;;;9.88;;
48849;SDS011;63210;53.370;6.770;2023-11-21T14:40:45;10.50;;;5.93;;
48849;SDS011;63210;53.370;6.770;2023-11-21T14:43:14;4.55;;;3.40;;
48849;SDS011;63210;53.370;6.770;2023-11-21T14:45:39;6.15;;;3.72;;
48849;SDS011;63210;53.370;6.770;2023-11-21T14:48:06;7.00;;;3.70;;
48849;SDS011;63210;53.370;6.770;2023-11-21T14:50:51;6.35;;;3.78;;
48849;SDS011;63210;53.370;6.770;2023-11-21T14:53:35;5.97;;;3.65;;
48849;SDS011;63210;53.370;6.770;2023-11-21T14:56:28;7.35;;;4.22;;
48849;SDS011;63210;53.370;6.770;2023-11-21T14:58:59;6.03;;;3.28;;
48849;SDS011;63210;53.370;6.770;2023-11-21T15:01:32;5.70;;;4.00;;
48849;SDS011;63210;53.370;6.770;2023-11-21T15:04:10;6.40;;;4.97;;
48849;SDS011;63210;53.370;6.770;2023-11-21T15:06:48;9.38;;;4.88;;
48849;SDS011;63210;53.370;6.770;2023-11-21T15:09:14;6.15;;;4.40;;
48849;SDS011;63210;53.370;6.770;2023-11-21T15:11:43;5.47;;;3.72;;
48849;SDS011;63210;53.370;6.770;2023-11-21T15:14:09;13.20;;;4.65;;
48849;SDS011;63210;53.370;6.770;2023-11-21T15:16:36;8.82;;;4.35;;
48849;SDS011;63210;53.370;6.770;2023-11-21T15:19:08;6.68;;;3.97;;
48849;SDS011;63210;53.370;6.770;2023-11-21T15:21:35;4.75;;;3.50;;
48849;SDS011;63210;53.370;6.770;2023-11-21T15:24:01;9.02;;;4.07;;
48849;SDS011;63210;53.370;6.770;2023-11-21T15:26:26;8.05;;;4.10;;
48849;SDS011;63210;53.370;6.770;2023-11-21T15:28:55;5.05;;;3.67;;
48849;SDS011;63210;53.370;6.770;2023-11-21T15:31:24;7.20;;;4.55;;
48849;SDS011;63210;53.370;6.770;2023-11-21T15:33:51;6.53;;;3.47;;
48849;SDS011;63210;53.370;6.770;2023-11-21T15:36:17;7.28;;;3.92;;
48849;SDS011;63210;53.370;6.770;2023-11-21T15:38:42;8.30;;;4.10;;
48849;SDS011;63210;53.370;6.770;2023-11-21T15:41:07;4.75;;;3.70;;
48849;SDS011;63210;53.370;6.770;2023-11-21T15:43:39;8.43;;;4.47;;
48849;SDS011;63210;53.370;6.770;2023-11-21T15:46:04;8.38;;;4.40;;
48849;SDS011;63210;53.370;6.770;2023-11-21T15:48:39;9.98;;;5.10;;
48849;SDS011;63210;53.370;6.770;2023-11-21T15:51:08;9.00;;;4.40;;
48849;SDS011;63210;53.370;6.770;2023-11-21T15:53:37;8.07;;;4.82;;
48849;SDS011;63210;53.370;6.770;2023-11-21T15:56:06;10.48;;;5.50;;
48849;SDS011;63210;53.370;6.770;2023-11-21T15:58:41;6.28;;;5.03;;
48849;SDS011;63210;53.370;6.770;2023-11-21T16:01:12;7.72;;;5.00;;
48849;SDS011;63210;53.370;6.770;2023-11-21T16:03:43;9.05;;;5.10;;
48849;SDS011;63210;53.370;6.770;2023-11-21T16:06:19;8.73;;;6.38;;
48849;SDS011;63210;53.370;6.770;2023-11-21T16:08:46;13.00;;;5.40;;
48849;SDS011;63210;53.370;6.770;2023-11-21T16:13:42;8.70;;;5.60;;
48849;SDS011;63210;53.370;6.770;2023-11-21T16:16:14;10.38;;;5.50;;
48849;SDS011;63210;53.370;6.770;2023-11-21T16:18:43;6.97;;;5.65;;
48849;SDS011;63210;53.370;6.770;2023-11-21T16:21:10;9.40;;;5.78;;
48849;SDS011;63210;53.370;6.770;2023-11-21T16:23:40;9.30;;;5.75;;
48849;SDS011;63210;53.370;6.770;2023-11-21T16:26:16;9.25;;;6.40;;
48849;SDS011;63210;53.370;6.770;2023-11-21T16:28:43;12.90;;;6.32;;
48849;SDS011;63210;53.370;6.770;2023-11-21T16:31:10;8.68;;;5.72;;
48849;SDS011;63210;53.370;6.770;2023-11-21T16:33:36;9.30;;;6.25;;
48849;SDS011;63210;53.370;6.770;2023-11-21T16:36:05;9.43;;;5.38;;
48849;SDS011;63210;53.370;6.770;2023-11-21T16:38:31;10.32;;;5.40;;
48849;SDS011;63210;53.370;6.770;2023-11-21T16:40:58;9.70;;;5.97;;
48849;SDS011;63210;53.370;6.770;2023-11-21T16:43:23;9.07;;;6.22;;
48849;SDS011;63210;53.370;6.770;2023-11-21T16:45:49;7.53;;;6.10;;
48849;SDS011;63210;53.370;6.770;2023-11-21T16:48:21;12.75;;;6.82;;
48849;SDS011;63210;53.370;6.770;2023-11-21T16:50:49;27.50;;;12.43;;
48849;SDS011;63210;53.370;6.770;2023-11-21T16:53:25;10.13;;;7.15;;
48849;SDS011;63210;53.370;6.770;2023-11-21T16:55:56;11.98;;;7.40;;
48849;SDS011;63210;53.370;6.770;2023-11-21T16:58:22;31.88;;;15.88;;
48849;SDS011;63210;53.370;6.770;2023-11-21T17:00:47;15.35;;;10.27;;
48849;SDS011;63210;53.370;6.770;2023-11-21T17:03:20;11.75;;;7.90;;
48849;SDS011;63210;53.370;6.770;2023-11-21T17:05:55;12.50;;;7.55;;
48849;SDS011;63210;53.370;6.770;2023-11-21T17:08:24;11.82;;;7.63;;
48849;SDS011;63210;53.370;6.770;2023-11-21T17:10:59;10.57;;;7.53;;
48849;SDS011;63210;53.370;6.770;2023-11-21T17:13:28;8.23;;;6.00;;
48849;SDS011;63210;53.370;6.770;2023-11-21T17:16:05;8.15;;;6.30;;
48849;SDS011;63210;53.370;6.770;2023-11-21T17:18:36;10.23;;;6.80;;
48849;SDS011;63210;53.370;6.770;2023-11-21T17:21:04;8.02;;;6.32;;
48849;SDS011;63210;53.370;6.770;2023-11-21T17:23:30;8.55;;;6.35;;
48849;SDS011;63210;53.370;6.770;2023-11-21T17:26:03;9.18;;;6.70;;
48849;SDS011;63210;53.370;6.770;2023-11-21T17:28:30;8.65;;;6.90;;
48849;SDS011;63210;53.370;6.770;2023-11-21T17:31:00;9.48;;;7.00;;
48849;SDS011;63210;53.370;6.770;2023-11-21T17:33:27;12.75;;;7.50;;
48849;SDS011;63210;53.370;6.770;2023-11-21T17:35:56;11.10;;;6.78;;
48849;SDS011;63210;53.370;6.770;2023-11-21T17:38:22;10.13;;;6.18;;
48849;SDS011;63210;53.370;6.770;2023-11-21T17:40:49;10.80;;;7.95;;
48849;SDS011;63210;53.370;6.770;2023-11-21T17:43:15;9.32;;;6.43;;
48849;SDS011;63210;53.370;6.770;2023-11-21T17:45:45;12.40;;;7.00;;
48849;SDS011;63210;53.370;6.770;2023-11-21T17:48:29;9.45;;;6.95;;
48849;SDS011;63210;53.370;6.770;2023-11-21T17:50:57;10.65;;;6.97;;
48849;SDS011;63210;53.370;6.770;2023-11-21T17:53:24;10.30;;;7.40;;
48849;SDS011;63210;53.370;6.770;2023-11-21T17:55:54;10.45;;;6.82;;
48849;SDS011;63210;53.370;6.770;2023-11-21T17:58:20;13.90;;;7.70;;
48849;SDS011;63210;53.370;6.770;2023-11-21T18:00:45;12.23;;;7.80;;
48849;SDS011;63210;53.370;6.770;2023-11-21T18:03:30;10.75;;;7.85;;
48849;SDS011;63210;53.370;6.770;2023-11-21T18:05:56;10.38;;;7.43;;
48849;SDS011;63210;53.370;6.770;2023-11-21T18:08:38;16.13;;;7.75;;
48849;SDS011;63210;53.370;6.770;2023-11-21T18:11:14;8.73;;;6.60;;
48849;SDS011;63210;53.370;6.770;2023-11-21T18:13:46;8.52;;;6.20;;
48849;SDS011;63210;53.370;6.770;2023-11-21T18:16:23;9.88;;;6.53;;
48849;SDS011;63210;53.370;6.770;2023-11-21T18:18:48;9.13;;;6.70;;
48849;SDS011;63210;53.370;6.770;2023-11-21T18:21:27;9.02;;;6.38;;
48849;SDS011;63210;53.370;6.770;2023-11-21T18:23:56;11.13;;;6.65;;
48849;SDS011;63210;53.370;6.770;2023-11-21T18:26:33;8.85;;;6.75;;
48849;SDS011;63210;53.370;6.770;2023-11-21T18:29:09;10.73;;;6.55;;
48849;SDS011;63210;53.370;6.770;2023-11-21T18:31:42;11.27;;;5.95;;
48849;SDS011;63210;53.370;6.770;2023-11-21T18:34:43;10.82;;;6.25;;
48849;SDS011;63210;53.370;6.770;2023-11-21T18:37:15;8.85;;;5.78;;
48849;SDS011;63210;53.370;6.770;2023-11-21T18:39:43;7.43;;;6.18;;
48849;SDS011;63210;53.370;6.770;2023-11-21T18:42:21;10.15;;;6.35;;
48849;SDS011;63210;53.370;6.770;2023-11-21T18:44:50;14.13;;;5.93;;
48849;SDS011;63210;53.370;6.770;2023-11-21T18:47:21;8.80;;;5.25;;
48849;SDS011;63210;53.370;6.770;2023-11-21T18:49:48;8.35;;;5.55;;
48849;SDS011;63210;53.370;6.770;2023-11-21T18:52:13;11.75;;;6.05;;
48849;SDS011;63210;53.370;6.770;2023-11-21T18:54:40;8.75;;;6.13;;
48849;SDS011;63210;53.370;6.770;2023-11-21T18:57:12;8.13;;;6.10;;
48849;SDS011;63210;53.370;6.770;2023-11-21T18:59:43;7.95;;;6.32;;
48849;SDS011;63210;53.370;6.770;2023-11-21T19:02:11;7.50;;;5.80;;
48849;SDS011;63210;53.370;6.770;2023-11-21T19:04:40;10.93;;;6.00;;
48849;SDS011;63210;53.370;6.770;2023-11-21T19:07:05;9.65;;;5.80;;
48849;SDS011;63210;53.370;6.770;2023-11-21T19:09:33;9.65;;;5.85;;
48849;SDS011;63210;53.370;6.770;2023-11-21T19:12:02;8.45;;;5.82;;
48849;SDS011;63210;53.370;6.770;2023-11-21T19:14:27;8.05;;;5.40;;
48849;SDS011;63210;53.370;6.770;2023-11-21T19:16:54;8.25;;;5.70;;
48849;SDS011;63210;53.370;6.770;2023-11-21T19:19:20;7.40;;;5.25;;
48849;SDS011;63210;53.370;6.770;2023-11-21T19:21:48;9.18;;;5.65;;
48849;SDS011;63210;53.370;6.770;2023-11-21T19:24:21;6.97;;;5.45;;
48849;SDS011;63210;53.370;6.770;2023-11-21T19:26:48;7.05;;;4.90;;
48849;SDS011;63210;53.370;6.770;2023-11-21T19:29:14;8.55;;;5.32;;
48849;SDS011;63210;53.370;6.770;2023-11-21T19:31:44;7.60;;;4.72;;
48849;SDS011;63210;53.370;6.770;2023-11-21T19:34:09;7.03;;;5.15;;
48849;SDS011;63210;53.370;6.770;2023-11-21T19:36:41;5.65;;;5.05;;
48849;SDS011;63210;53.370;6.770;2023-11-21T19:39:08;8.02;;;4.80;;
48849;SDS011;63210;53.370;6.770;2023-11-21T19:41:38;7.85;;;4.63;;
48849;SDS011;63210;53.370;6.770;2023-11-21T19:44:04;5.55;;;4.53;;
48849;SDS011;63210;53.370;6.770;2023-11-21T19:46:30;3.10;;;2.80;;
48849;SDS011;63210;53.370;6.770;2023-11-21T19:48:55;6.30;;;3.78;;
48849;SDS011;63210;53.370;6.770;2023-11-21T19:51:21;7.85;;;3.80;;
48849;SDS011;63210;53.370;6.770;2023-11-21T19:53:49;4.28;;;3.60;;
48849;SDS011;63210;53.370;6.770;2023-11-21T19:56:15;7.63;;;4.05;;
48849;SDS011;63210;53.370;6.770;2023-11-21T19:58:40;8.05;;;4.18;;
48849;SDS011;63210;53.370;6.770;2023-11-21T20:01:09;8.70;;;4.47;;
48849;SDS011;63210;53.370;6.770;2023-11-21T20:03:35;6.65;;;4.97;;
48849;SDS011;63210;53.370;6.770;2023-11-21T20:06:01;6.53;;;4.20;;
48849;SDS011;63210;53.370;6.770;2023-11-21T20:08:28;5.78;;;4.80;;
48849;SDS011;63210;53.370;6.770;2023-11-21T20:10:59;7.95;;;5.57;;
48849;SDS011;63210;53.370;6.770;2023-11-21T20:13:28;5.32;;;4.18;;
48849;SDS011;63210;53.370;6.770;2023-11-21T20:15:53;6.63;;;3.95;;
48849;SDS011;63210;53.370;6.770;2023-11-21T20:18:19;6.25;;;3.97;;
48849;SDS011;63210;53.370;6.770;2023-11-21T20:20:45;4.68;;;3.55;;
48849;SDS011;63210;53.370;6.770;2023-11-21T20:23:10;9.82;;;3.97;;
48849;SDS011;63210;53.370;6.770;2023-11-21T20:25:45;8.88;;;4.65;;
48849;SDS011;63210;53.370;6.770;2023-11-21T20:28:11;6.60;;;4.10;;
48849;SDS011;63210;53.370;6.770;2023-11-21T20:30:41;6.07;;;4.65;;